createdAt,value
2018-12-24T00:03:57.212Z,5.12
2018-12-24T00:09:02.289Z,3.75
2018-12-24T00:14:07.712Z,4.90
2018-12-24T00:19:11.046Z,8.30
2018-12-24T00:24:14.696Z,14.53
2018-12-24T00:29:18.136Z,13.70
2018-12-24T00:34:21.665Z,9.18
2018-12-24T00:39:25.166Z,12.00
2018-12-24T00:44:28.672Z,8.05
2018-12-24T00:49:32.360Z,7.08
2018-12-24T00:54:35.790Z,8.13
2018-12-24T00:59:39.644Z,5.92
2018-12-24T01:04:43.224Z,7.67
2018-12-24T01:09:48.227Z,6.17
2018-12-24T01:14:51.814Z,6.05
2018-12-24T01:19:55.211Z,3.83
2018-12-24T01:24:58.754Z,8.73
2018-12-24T01:30:02.544Z,4.97
2018-12-24T01:35:06.158Z,8.30
2018-12-24T01:40:09.662Z,3.65
2018-12-24T01:45:12.986Z,4.28
2018-12-24T01:50:16.350Z,6.15
2018-12-24T01:55:20.297Z,4.75
2018-12-24T02:00:29.339Z,7.17
2018-12-24T02:05:34.399Z,6.67
2018-12-24T02:10:38.001Z,3.98
2018-12-24T02:15:43.039Z,4.92
2018-12-24T02:20:46.285Z,3.98
2018-12-24T02:25:49.752Z,4.70
2018-12-24T02:30:54.153Z,3.87
2018-12-24T02:35:57.586Z,4.15
2018-12-24T02:41:01.062Z,6.33
2018-12-24T02:46:04.426Z,6.85
2018-12-24T02:51:07.990Z,6.22
2018-12-24T02:56:11.644Z,4.72
2018-12-24T03:01:15.181Z,12.25
2018-12-24T03:06:19.622Z,13.08
2018-12-24T03:11:23.374Z,6.12
2018-12-24T03:16:26.835Z,6.00
2018-12-24T03:21:30.391Z,3.58
2018-12-24T03:26:33.808Z,5.58
2018-12-24T03:31:37.364Z,7.70
2018-12-24T03:36:40.885Z,11.03
2018-12-24T03:41:44.501Z,19.15
2018-12-24T03:46:47.978Z,14.50
2018-12-24T03:51:51.391Z,11.50
2018-12-24T03:56:54.786Z,7.75
2018-12-24T04:01:58.565Z,4.42
2018-12-24T04:07:03.142Z,3.92
2018-12-24T04:12:06.877Z,3.62
2018-12-24T04:17:13.075Z,6.87
2018-12-24T04:22:16.550Z,7.83
2018-12-24T04:27:20.147Z,5.20
2018-12-24T04:32:24.029Z,3.02
2018-12-24T04:37:28.022Z,10.48
2018-12-24T04:42:31.584Z,11.10
2018-12-24T04:47:35.107Z,7.20
2018-12-24T04:52:38.746Z,3.50
2018-12-24T04:57:42.350Z,3.42
2018-12-24T05:02:45.917Z,7.42
2018-12-24T05:07:49.521Z,2.47
2018-12-24T05:12:53.171Z,2.33
2018-12-24T05:17:56.826Z,4.53
2018-12-24T05:23:00.349Z,4.90
2018-12-24T05:28:03.838Z,7.45
2018-12-24T05:33:07.493Z,16.20
2018-12-24T05:38:11.071Z,25.75
2018-12-24T05:43:15.264Z,25.62
2018-12-24T05:48:18.824Z,27.77
2018-12-24T05:53:22.357Z,18.10
2018-12-24T05:58:25.792Z,31.23
2018-12-24T06:03:29.571Z,24.98
2018-12-24T06:08:33.241Z,32.95
2018-12-24T06:13:36.843Z,22.65
2018-12-24T06:18:41.871Z,9.03
2018-12-24T06:23:45.641Z,41.37
2018-12-24T06:28:48.921Z,137.32
2018-12-24T06:33:52.686Z,21.60
2018-12-24T06:38:56.469Z,18.80
2018-12-24T06:44:06.626Z,15.13
2018-12-24T06:49:05.678Z,13.05
2018-12-24T06:54:09.416Z,25.60
2018-12-24T06:59:13.089Z,28.80
2018-12-24T07:04:16.683Z,15.48
2018-12-24T07:09:20.550Z,25.72
2018-12-24T07:14:24.006Z,42.03
2018-12-24T07:19:27.514Z,41.40
2018-12-24T07:24:30.826Z,38.58
2018-12-24T07:29:34.337Z,23.57
2018-12-24T07:34:37.899Z,14.78
2018-12-24T07:39:42.371Z,17.65
2018-12-24T07:44:45.839Z,24.57
2018-12-24T07:49:49.262Z,27.25
2018-12-24T07:54:52.770Z,13.83
2018-12-24T07:59:56.437Z,12.10
2018-12-24T08:05:00.312Z,16.75
2018-12-24T08:10:04.076Z,30.55
2018-12-24T08:15:07.858Z,25.12
2018-12-24T08:20:11.451Z,39.85
2018-12-24T08:25:14.880Z,37.35
2018-12-24T08:30:18.293Z,42.93
2018-12-24T08:35:21.970Z,42.53
2018-12-24T08:40:25.534Z,55.65
2018-12-24T08:45:29.365Z,47.78
2018-12-24T08:50:32.996Z,32.30
2018-12-24T08:55:36.768Z,37.53
2018-12-24T09:00:40.330Z,32.30
2018-12-24T09:05:44.127Z,32.55
2018-12-24T09:10:47.827Z,30.33
2018-12-24T09:15:51.340Z,23.75
2018-12-24T09:20:54.908Z,33.65
2018-12-24T09:25:58.510Z,28.60
2018-12-24T09:31:02.114Z,24.82
2018-12-24T09:36:06.592Z,18.45
2018-12-24T09:41:10.126Z,22.95
2018-12-24T09:46:13.653Z,18.30
2018-12-24T09:51:17.113Z,23.40
2018-12-24T09:56:21.044Z,23.38
2018-12-24T10:01:24.677Z,24.35
2018-12-24T10:06:32.527Z,24.07
2018-12-24T10:11:36.870Z,17.95
2018-12-24T10:16:40.355Z,24.72
2018-12-24T10:21:43.829Z,21.33
2018-12-24T10:26:47.401Z,22.70
2018-12-24T10:31:50.854Z,23.85
2018-12-24T10:36:54.682Z,22.25
2018-12-24T10:41:58.143Z,18.15
2018-12-24T10:47:01.746Z,20.60
2018-12-24T10:52:05.551Z,27.70
2018-12-24T10:57:09.190Z,13.28
2018-12-24T11:02:12.892Z,20.15
2018-12-24T11:07:16.530Z,43.78
2018-12-24T11:12:20.116Z,24.43
2018-12-24T11:17:23.668Z,22.95
2018-12-24T11:22:27.395Z,32.75
2018-12-24T11:27:30.801Z,17.70
2018-12-24T11:32:34.477Z,17.65
2018-12-24T11:37:38.178Z,29.35
2018-12-24T11:42:41.671Z,31.00
2018-12-24T11:47:45.246Z,28.35
2018-12-24T11:52:48.795Z,22.70
2018-12-24T11:57:52.345Z,21.02
2018-12-24T12:02:55.990Z,38.50
2018-12-24T12:07:59.827Z,27.52
2018-12-24T12:13:03.330Z,33.18
2018-12-24T12:18:06.845Z,68.12
2018-12-24T12:23:10.552Z,53.73
2018-12-24T12:28:14.118Z,58.92
2018-12-24T12:33:17.941Z,34.13
2018-12-24T12:38:29.583Z,35.73
2018-12-24T12:43:27.215Z,52.35
2018-12-24T12:48:30.814Z,56.73
2018-12-24T12:53:56.033Z,48.38
2018-12-24T12:58:59.486Z,106.17
2018-12-24T13:04:03.035Z,73.37
2018-12-24T13:09:07.165Z,129.75
2018-12-24T13:14:11.474Z,119.15
2018-12-24T13:19:18.486Z,110.28
2018-12-24T13:24:21.900Z,112.62
2018-12-24T13:29:25.594Z,77.78
2018-12-24T13:34:29.199Z,101.27
2018-12-24T13:39:34.854Z,77.58
2018-12-24T13:44:38.338Z,93.10
2018-12-24T13:49:42.107Z,105.83
2018-12-24T13:54:48.112Z,81.35
2018-12-24T13:59:51.557Z,128.65
2018-12-24T14:04:55.233Z,166.53
2018-12-24T14:09:59.134Z,153.50
2018-12-24T14:15:02.806Z,130.50
2018-12-24T14:20:06.922Z,210.40
2018-12-24T14:25:10.424Z,202.20
2018-12-24T14:30:14.258Z,163.72
2018-12-24T14:35:18.066Z,169.15
2018-12-24T14:40:21.885Z,272.73
2018-12-24T14:45:27.810Z,178.35
2018-12-24T14:50:31.990Z,176.50
2018-12-24T14:55:58.309Z,187.68
2018-12-24T15:01:02.079Z,169.05
2018-12-24T15:06:05.515Z,199.68
2018-12-24T15:11:09.122Z,187.97
2018-12-24T15:16:12.991Z,182.55
2018-12-24T15:21:18.833Z,190.40
2018-12-24T15:26:22.247Z,189.87
2018-12-24T15:31:25.688Z,223.20
2018-12-24T15:36:32.247Z,223.32
2018-12-24T15:41:36.332Z,225.50
2018-12-24T15:46:42.757Z,291.93
2018-12-24T15:51:45.697Z,187.00
2018-12-24T15:56:49.266Z,203.88
2018-12-24T16:01:52.824Z,266.25
2018-12-24T16:06:56.434Z,258.35
2018-12-24T16:12:01.501Z,138.40
2018-12-24T16:17:05.110Z,71.60
2018-12-24T16:22:09.433Z,65.62
2018-12-24T16:27:12.936Z,83.85
2018-12-24T16:32:16.410Z,48.00
2018-12-24T16:37:19.951Z,106.90
2018-12-24T16:42:23.887Z,55.73
2018-12-24T16:47:27.348Z,56.05
2018-12-24T16:52:30.864Z,61.00
2018-12-24T16:57:35.426Z,89.30
2018-12-24T17:02:39.000Z,84.07
2018-12-24T17:07:42.427Z,83.30
2018-12-24T17:12:46.111Z,55.85
2018-12-24T17:17:49.703Z,28.27
2018-12-24T17:22:53.196Z,21.73
2018-12-24T17:27:56.871Z,22.35
2018-12-24T17:33:01.671Z,12.00
2018-12-24T17:38:05.377Z,14.73
2018-12-24T17:43:09.063Z,14.68
2018-12-24T17:48:13.867Z,8.48
2018-12-24T17:53:17.539Z,7.87
2018-12-24T17:58:21.023Z,9.15
2018-12-24T18:03:24.640Z,9.48
2018-12-24T18:08:29.663Z,11.20
2018-12-24T18:13:33.290Z,10.68
2018-12-24T18:18:36.827Z,6.80
2018-12-24T18:23:40.668Z,3.92
2018-12-24T18:28:44.123Z,3.75
2018-12-24T18:33:47.507Z,2.67
2018-12-24T18:38:51.073Z,2.72
2018-12-24T18:43:54.923Z,3.25
2018-12-24T18:48:58.845Z,3.37
2018-12-24T18:54:02.375Z,2.67
2018-12-24T18:59:06.194Z,4.42
2018-12-24T19:04:11.292Z,4.40
2018-12-24T19:09:16.322Z,1.92
2018-12-24T19:14:20.951Z,1.10
2018-12-24T19:19:24.277Z,1.87
2018-12-24T19:24:27.793Z,2.90
2018-12-24T19:29:31.290Z,5.12
2018-12-24T19:34:34.664Z,1.62
2018-12-24T19:39:38.190Z,5.47
2018-12-24T19:44:42.443Z,6.80
2018-12-24T19:49:46.072Z,2.08
2018-12-24T19:54:49.557Z,3.77
2018-12-24T19:59:53.097Z,4.00
2018-12-24T20:04:56.692Z,2.40
2018-12-24T20:10:00.296Z,2.75
2018-12-24T20:15:04.180Z,1.40
2018-12-24T20:20:07.719Z,6.37
2018-12-24T20:25:11.302Z,5.50
2018-12-24T20:30:14.978Z,4.80
2018-12-24T20:35:19.307Z,3.90
2018-12-24T20:40:22.666Z,3.37
2018-12-24T20:45:26.309Z,2.67
2018-12-24T20:50:29.647Z,0.70
2018-12-24T20:55:33.188Z,0.70
2018-12-24T21:00:36.805Z,2.52
2018-12-24T21:05:40.267Z,0.70
2018-12-24T21:10:43.861Z,3.05
2018-12-24T21:15:47.498Z,0.90
2018-12-24T21:20:51.050Z,1.42
2018-12-24T21:25:54.688Z,4.40
2018-12-24T21:30:59.354Z,1.80
2018-12-24T21:36:02.941Z,3.08
2018-12-24T21:41:06.548Z,1.50
2018-12-24T21:46:10.340Z,1.07
2018-12-24T21:51:14.117Z,2.12
2018-12-24T21:56:17.587Z,2.40
2018-12-24T22:01:21.150Z,2.17
2018-12-24T22:06:25.895Z,4.28
2018-12-24T22:11:29.418Z,5.12
2018-12-24T22:16:33.056Z,6.35
2018-12-24T22:21:36.848Z,2.52
2018-12-24T22:26:40.476Z,2.35
2018-12-24T22:31:44.592Z,1.90
2018-12-24T22:36:48.227Z,1.95
2018-12-24T22:41:51.796Z,2.12
2018-12-24T22:46:55.621Z,2.45
2018-12-24T22:51:59.211Z,3.12
2018-12-24T22:57:02.942Z,4.03
2018-12-24T23:02:06.725Z,3.70
2018-12-24T23:07:10.347Z,1.40
2018-12-24T23:12:13.981Z,1.62
2018-12-24T23:17:17.706Z,1.25
2018-12-24T23:22:21.325Z,2.40
2018-12-24T23:27:24.721Z,1.47
2018-12-24T23:32:28.288Z,3.33
2018-12-24T23:37:31.870Z,1.10
2018-12-24T23:42:35.326Z,1.57
2018-12-24T23:47:39.359Z,1.35
2018-12-24T23:52:43.044Z,2.17
2018-12-24T23:57:46.600Z,2.65
